sensor_id;sensor_type;location;lat;lon;timestamp;temperature;humidity
5705;DHT22;2877;48.238;11.160;2024-02-28T00:02:09;5.70;99.90
5705;DHT22;2877;48.238;11.160;2024-02-28T00:04:34;5.80;99.90
5705;DHT22;2877;48.238;11.160;2024-02-28T00:07:00;5.70;99.90
5705;DHT22;2877;48.238;11.160;2024-02-28T00:09:26;5.80;99.90
5705;DHT22;2877;48.238;11.160;2024-02-28T00:11:51;5.80;99.90
5705;DHT22;2877;48.238;11.160;2024-02-28T00:14:17;5.80;99.90
5705;DHT22;2877;48.238;11.160;2024-02-28T00:16:43;5.80;99.90
5705;DHT22;2877;48.238;11.160;2024-02-28T00:19:09;5.80;99.90
5705;DHT22;2877;48.238;11.160;2024-02-28T00:21:36;5.70;99.90
5705;DHT22;2877;48.238;11.160;2024-02-28T00:24:02;5.70;99.90
5705;DHT22;2877;48.238;11.160;2024-02-28T00:26:28;5.70;99.90
5705;DHT22;2877;48.238;11.160;2024-02-28T00:28:53;5.70;99.90
5705;DHT22;2877;48.238;11.160;2024-02-28T00:31:19;5.70;99.90
5705;DHT22;2877;48.238;11.160;2024-02-28T00:33:44;5.70;99.90
5705;DHT22;2877;48.238;11.160;2024-02-28T00:36:10;5.70;99.90
5705;DHT22;2877;48.238;11.160;2024-02-28T00:38:35;5.70;99.90
5705;DHT22;2877;48.238;11.160;2024-02-28T00:41:01;5.70;99.90
5705;DHT22;2877;48.238;11.160;2024-02-28T00:43:27;5.70;99.90
5705;DHT22;2877;48.238;11.160;2024-02-28T00:45:52;5.70;99.90
5705;DHT22;2877;48.238;11.160;2024-02-28T00:48:18;5.70;99.90
5705;DHT22;2877;48.238;11.160;2024-02-28T00:50:43;5.70;99.90
5705;DHT22;2877;48.238;11.160;2024-02-28T00:53:09;5.70;99.90
5705;DHT22;2877;48.238;11.160;2024-02-28T00:55:34;5.60;99.90
5705;DHT22;2877;48.238;11.160;2024-02-28T00:58:00;5.70;99.90
5705;DHT22;2877;48.238;11.160;2024-02-28T01:00:25;5.60;99.90
5705;DHT22;2877;48.238;11.160;2024-02-28T01:02:51;5.60;99.90
5705;DHT22;2877;48.238;11.160;2024-02-28T01:05:17;5.60;99.90
5705;DHT22;2877;48.238;11.160;2024-02-28T01:07:42;5.60;99.90
5705;DHT22;2877;48.238;11.160;2024-02-28T01:10:08;5.60;99.90
5705;DHT22;2877;48.238;11.160;2024-02-28T01:12:33;5.50;99.90
5705;DHT22;2877;48.238;11.160;2024-02-28T01:14:59;5.50;99.90
5705;DHT22;2877;48.238;11.160;2024-02-28T01:17:25;5.60;99.90
5705;DHT22;2877;48.238;11.160;2024-02-28T01:19:51;5.50;99.90
5705;DHT22;2877;48.238;11.160;2024-02-28T01:22:16;5.50;99.90
5705;DHT22;2877;48.238;11.160;2024-02-28T01:24:42;5.60;99.90
5705;DHT22;2877;48.238;11.160;2024-02-28T01:27:07;5.50;99.90
5705;DHT22;2877;48.238;11.160;2024-02-28T01:29:33;5.50;99.90
5705;DHT22;2877;48.238;11.160;2024-02-28T01:31:58;5.50;99.90
5705;DHT22;2877;48.238;11.160;2024-02-28T01:34:24;5.50;99.90
5705;DHT22;2877;48.238;11.160;2024-02-28T01:36:49;5.50;99.90
5705;DHT22;2877;48.238;11.160;2024-02-28T01:39:15;5.50;99.90
5705;DHT22;2877;48.238;11.160;2024-02-28T01:41:40;5.50;99.90
5705;DHT22;2877;48.238;11.160;2024-02-28T01:44:08;5.50;99.90
5705;DHT22;2877;48.238;11.160;2024-02-28T01:46:34;5.60;99.90
5705;DHT22;2877;48.238;11.160;2024-02-28T01:49:00;5.60;99.90
5705;DHT22;2877;48.238;11.160;2024-02-28T01:51:26;5.60;99.90
5705;DHT22;2877;48.238;11.160;2024-02-28T01:53:55;5.60;99.90
5705;DHT22;2877;48.238;11.160;2024-02-28T01:56:23;5.60;99.90
5705;DHT22;2877;48.238;11.160;2024-02-28T01:58:49;5.60;99.90
5705;DHT22;2877;48.238;11.160;2024-02-28T02:01:16;5.60;99.90
5705;DHT22;2877;48.238;11.160;2024-02-28T02:03:44;5.60;99.90
5705;DHT22;2877;48.238;11.160;2024-02-28T02:06:10;5.60;99.90
5705;DHT22;2877;48.238;11.160;2024-02-28T02:08:37;5.60;99.90
5705;DHT22;2877;48.238;11.160;2024-02-28T02:11:04;5.60;99.90
5705;DHT22;2877;48.238;11.160;2024-02-28T02:13:29;5.60;99.90
5705;DHT22;2877;48.238;11.160;2024-02-28T02:15:55;5.60;99.90
5705;DHT22;2877;48.238;11.160;2024-02-28T02:18:20;5.60;99.90
5705;DHT22;2877;48.238;11.160;2024-02-28T02:20:53;5.60;99.90
5705;DHT22;2877;48.238;11.160;2024-02-28T02:23:20;5.60;99.90
5705;DHT22;2877;48.238;11.160;2024-02-28T02:25:46;5.60;99.90
5705;DHT22;2877;48.238;11.160;2024-02-28T02:28:12;5.60;99.90
5705;DHT22;2877;48.238;11.160;2024-02-28T02:30:38;5.70;99.90
5705;DHT22;2877;48.238;11.160;2024-02-28T02:33:05;5.70;99.90
5705;DHT22;2877;48.238;11.160;2024-02-28T02:35:30;5.70;99.90
5705;DHT22;2877;48.238;11.160;2024-02-28T02:37:56;5.70;99.90
5705;DHT22;2877;48.238;11.160;2024-02-28T02:40:21;5.60;99.90
5705;DHT22;2877;48.238;11.160;2024-02-28T02:42:47;5.60;99.90
5705;DHT22;2877;48.238;11.160;2024-02-28T02:45:12;5.60;99.90
5705;DHT22;2877;48.238;11.160;2024-02-28T02:47:38;5.60;99.90
5705;DHT22;2877;48.238;11.160;2024-02-28T02:50:04;5.50;99.90
5705;DHT22;2877;48.238;11.160;2024-02-28T02:52:30;5.50;99.90
5705;DHT22;2877;48.238;11.160;2024-02-28T02:54:55;5.50;99.90
5705;DHT22;2877;48.238;11.160;2024-02-28T02:57:21;5.50;99.90
5705;DHT22;2877;48.238;11.160;2024-02-28T02:59:46;5.50;99.90
5705;DHT22;2877;48.238;11.160;2024-02-28T03:02:12;5.50;99.90
5705;DHT22;2877;48.238;11.160;2024-02-28T03:04:37;5.50;99.90
5705;DHT22;2877;48.238;11.160;2024-02-28T03:07:03;5.50;99.90
5705;DHT22;2877;48.238;11.160;2024-02-28T03:09:28;5.50;99.90
5705;DHT22;2877;48.238;11.160;2024-02-28T03:11:54;5.50;99.90
5705;DHT22;2877;48.238;11.160;2024-02-28T03:14:19;5.50;99.90
5705;DHT22;2877;48.238;11.160;2024-02-28T03:16:47;5.50;99.90
5705;DHT22;2877;48.238;11.160;2024-02-28T03:19:14;5.50;99.90
5705;DHT22;2877;48.238;11.160;2024-02-28T03:21:40;5.50;99.90
5705;DHT22;2877;48.238;11.160;2024-02-28T03:24:06;5.40;99.90
5705;DHT22;2877;48.238;11.160;2024-02-28T03:26:32;5.40;99.90
5705;DHT22;2877;48.238;11.160;2024-02-28T03:28:57;5.40;99.90
5705;DHT22;2877;48.238;11.160;2024-02-28T03:31:23;5.40;99.90
5705;DHT22;2877;48.238;11.160;2024-02-28T03:33:49;5.40;99.90
5705;DHT22;2877;48.238;11.160;2024-02-28T03:36:14;5.40;99.90
5705;DHT22;2877;48.238;11.160;2024-02-28T03:38:39;5.40;99.90
5705;DHT22;2877;48.238;11.160;2024-02-28T03:41:05;5.30;99.90
5705;DHT22;2877;48.238;11.160;2024-02-28T03:43:31;5.30;99.90
5705;DHT22;2877;48.238;11.160;2024-02-28T03:45:56;5.40;99.90
5705;DHT22;2877;48.238;11.160;2024-02-28T03:48:22;5.30;99.90
5705;DHT22;2877;48.238;11.160;2024-02-28T03:50:47;5.30;99.90
5705;DHT22;2877;48.238;11.160;2024-02-28T03:53:13;5.30;99.90
5705;DHT22;2877;48.238;11.160;2024-02-28T03:55:38;5.30;99.90
5705;DHT22;2877;48.238;11.160;2024-02-28T03:58:04;5.30;99.90
5705;DHT22;2877;48.238;11.160;2024-02-28T04:00:32;5.20;99.90
5705;DHT22;2877;48.238;11.160;2024-02-28T04:02:57;5.20;99.90
5705;DHT22;2877;48.238;11.160;2024-02-28T04:05:23;5.20;99.90
5705;DHT22;2877;48.238;11.160;2024-02-28T04:07:48;5.20;99.90
5705;DHT22;2877;48.238;11.160;2024-02-28T04:10:14;5.20;99.90
5705;DHT22;2877;48.238;11.160;2024-02-28T04:12:42;5.20;99.90
5705;DHT22;2877;48.238;11.160;2024-02-28T04:15:08;5.20;99.90
5705;DHT22;2877;48.238;11.160;2024-02-28T04:17:35;5.20;99.90
5705;DHT22;2877;48.238;11.160;2024-02-28T04:20:09;5.20;99.90
5705;DHT22;2877;48.238;11.160;2024-02-28T04:22:34;5.20;99.90
5705;DHT22;2877;48.238;11.160;2024-02-28T04:25:00;5.20;99.90
5705;DHT22;2877;48.238;11.160;2024-02-28T04:27:25;5.20;99.90
5705;DHT22;2877;48.238;11.160;2024-02-28T04:29:51;5.30;99.90
5705;DHT22;2877;48.238;11.160;2024-02-28T04:32:16;5.20;99.90
5705;DHT22;2877;48.238;11.160;2024-02-28T04:34:42;5.20;99.90
5705;DHT22;2877;48.238;11.160;2024-02-28T04:37:08;5.20;99.90
5705;DHT22;2877;48.238;11.160;2024-02-28T04:39:33;5.20;99.90
5705;DHT22;2877;48.238;11.160;2024-02-28T04:41:59;5.20;99.90
5705;DHT22;2877;48.238;11.160;2024-02-28T04:44:24;5.10;99.90
5705;DHT22;2877;48.238;11.160;2024-02-28T04:46:50;5.20;99.90
5705;DHT22;2877;48.238;11.160;2024-02-28T04:49:15;5.20;99.90
5705;DHT22;2877;48.238;11.160;2024-02-28T04:51:41;5.20;99.90
5705;DHT22;2877;48.238;11.160;2024-02-28T04:54:06;5.20;99.90
5705;DHT22;2877;48.238;11.160;2024-02-28T04:56:32;5.20;99.90
5705;DHT22;2877;48.238;11.160;2024-02-28T04:58:57;5.20;99.90
5705;DHT22;2877;48.238;11.160;2024-02-28T05:01:23;5.10;99.90
5705;DHT22;2877;48.238;11.160;2024-02-28T05:03:48;5.20;99.90
5705;DHT22;2877;48.238;11.160;2024-02-28T05:06:14;5.20;99.90
5705;DHT22;2877;48.238;11.160;2024-02-28T05:08:39;5.20;99.90
5705;DHT22;2877;48.238;11.160;2024-02-28T05:11:05;5.20;99.90
5705;DHT22;2877;48.238;11.160;2024-02-28T05:13:31;5.20;99.90
5705;DHT22;2877;48.238;11.160;2024-02-28T05:15:56;5.20;99.90
5705;DHT22;2877;48.238;11.160;2024-02-28T05:18:22;5.20;99.90
5705;DHT22;2877;48.238;11.160;2024-02-28T05:20:47;5.20;99.90
5705;DHT22;2877;48.238;11.160;2024-02-28T05:23:13;5.20;99.90
5705;DHT22;2877;48.238;11.160;2024-02-28T05:25:39;5.20;99.90
5705;DHT22;2877;48.238;11.160;2024-02-28T05:28:05;5.10;99.90
5705;DHT22;2877;48.238;11.160;2024-02-28T05:30:30;5.20;99.90
5705;DHT22;2877;48.238;11.160;2024-02-28T05:32:56;5.20;99.90
5705;DHT22;2877;48.238;11.160;2024-02-28T05:35:21;5.20;99.90
5705;DHT22;2877;48.238;11.160;2024-02-28T05:37:47;5.20;99.90
5705;DHT22;2877;48.238;11.160;2024-02-28T05:40:12;5.20;99.90
5705;DHT22;2877;48.238;11.160;2024-02-28T05:42:39;5.20;99.90
5705;DHT22;2877;48.238;11.160;2024-02-28T05:45:06;5.20;99.90
5705;DHT22;2877;48.238;11.160;2024-02-28T05:47:31;5.20;99.90
5705;DHT22;2877;48.238;11.160;2024-02-28T05:49:57;5.20;99.90
5705;DHT22;2877;48.238;11.160;2024-02-28T05:52:24;5.20;99.90
5705;DHT22;2877;48.238;11.160;2024-02-28T05:54:51;5.20;99.90
5705;DHT22;2877;48.238;11.160;2024-02-28T05:57:16;5.20;99.90
5705;DHT22;2877;48.238;11.160;2024-02-28T05:59:42;5.20;99.90
5705;DHT22;2877;48.238;11.160;2024-02-28T06:02:08;5.30;99.90
5705;DHT22;2877;48.238;11.160;2024-02-28T06:04:33;5.20;99.90
5705;DHT22;2877;48.238;11.160;2024-02-28T06:06:59;5.20;99.90
5705;DHT22;2877;48.238;11.160;2024-02-28T06:09:26;5.30;99.90
5705;DHT22;2877;48.238;11.160;2024-02-28T06:11:54;5.30;99.90
5705;DHT22;2877;48.238;11.160;2024-02-28T06:14:20;5.20;99.90
5705;DHT22;2877;48.238;11.160;2024-02-28T06:16:48;5.20;99.90
5705;DHT22;2877;48.238;11.160;2024-02-28T06:19:14;5.20;99.90
5705;DHT22;2877;48.238;11.160;2024-02-28T06:21:39;5.20;99.90
5705;DHT22;2877;48.238;11.160;2024-02-28T06:24:05;5.20;99.90
5705;DHT22;2877;48.238;11.160;2024-02-28T06:26:31;5.20;99.90
5705;DHT22;2877;48.238;11.160;2024-02-28T06:28:57;5.20;99.90
5705;DHT22;2877;48.238;11.160;2024-02-28T06:31:29;5.30;99.90
5705;DHT22;2877;48.238;11.160;2024-02-28T06:33:56;5.30;99.90
5705;DHT22;2877;48.238;11.160;2024-02-28T06:36:22;5.30;99.90
5705;DHT22;2877;48.238;11.160;2024-02-28T06:38:48;5.30;99.90
5705;DHT22;2877;48.238;11.160;2024-02-28T06:41:13;5.30;99.90
5705;DHT22;2877;48.238;11.160;2024-02-28T06:43:39;5.30;99.90
5705;DHT22;2877;48.238;11.160;2024-02-28T06:46:04;5.30;99.90
5705;DHT22;2877;48.238;11.160;2024-02-28T06:48:30;5.30;99.90
5705;DHT22;2877;48.238;11.160;2024-02-28T06:50:56;5.30;99.90
5705;DHT22;2877;48.238;11.160;2024-02-28T06:53:21;5.30;99.90
5705;DHT22;2877;48.238;11.160;2024-02-28T06:55:47;5.30;99.90
5705;DHT22;2877;48.238;11.160;2024-02-28T06:58:14;5.20;99.90
5705;DHT22;2877;48.238;11.160;2024-02-28T07:00:40;5.20;99.90
5705;DHT22;2877;48.238;11.160;2024-02-28T07:03:06;5.20;99.90
5705;DHT22;2877;48.238;11.160;2024-02-28T07:05:32;5.20;99.90
5705;DHT22;2877;48.238;11.160;2024-02-28T07:07:59;5.20;99.90
5705;DHT22;2877;48.238;11.160;2024-02-28T07:10:24;5.20;99.90
5705;DHT22;2877;48.238;11.160;2024-02-28T07:12:50;5.20;99.90
5705;DHT22;2877;48.238;11.160;2024-02-28T07:15:15;5.20;99.90
5705;DHT22;2877;48.238;11.160;2024-02-28T07:17:44;5.20;99.90
5705;DHT22;2877;48.238;11.160;2024-02-28T07:20:10;5.20;99.90
5705;DHT22;2877;48.238;11.160;2024-02-28T07:22:37;5.30;99.90
5705;DHT22;2877;48.238;11.160;2024-02-28T07:25:03;5.20;99.90
5705;DHT22;2877;48.238;11.160;2024-02-28T07:27:30;5.30;99.90
5705;DHT22;2877;48.238;11.160;2024-02-28T07:29:55;5.30;99.90
5705;DHT22;2877;48.238;11.160;2024-02-28T07:32:21;5.30;99.90
5705;DHT22;2877;48.238;11.160;2024-02-28T07:34:47;5.30;99.90
5705;DHT22;2877;48.238;11.160;2024-02-28T07:37:12;5.30;99.90
5705;DHT22;2877;48.238;11.160;2024-02-28T07:39:38;5.20;99.90
5705;DHT22;2877;48.238;11.160;2024-02-28T07:42:03;5.30;99.90
5705;DHT22;2877;48.238;11.160;2024-02-28T07:44:29;5.20;99.90
5705;DHT22;2877;48.238;11.160;2024-02-28T07:46:58;5.20;99.90
5705;DHT22;2877;48.238;11.160;2024-02-28T07:49:24;5.20;99.90
5705;DHT22;2877;48.238;11.160;2024-02-28T07:51:50;5.20;99.90
5705;DHT22;2877;48.238;11.160;2024-02-28T07:54:16;5.20;99.90
5705;DHT22;2877;48.238;11.160;2024-02-28T07:56:41;5.20;99.90
5705;DHT22;2877;48.238;11.160;2024-02-28T07:59:07;5.20;99.90
5705;DHT22;2877;48.238;11.160;2024-02-28T08:01:33;5.10;99.90
5705;DHT22;2877;48.238;11.160;2024-02-28T08:03:59;5.10;99.90
5705;DHT22;2877;48.238;11.160;2024-02-28T08:06:25;5.10;99.90
5705;DHT22;2877;48.238;11.160;2024-02-28T08:08:50;5.10;99.90
5705;DHT22;2877;48.238;11.160;2024-02-28T08:11:16;5.10;99.90
5705;DHT22;2877;48.238;11.160;2024-02-28T08:13:42;5.20;99.90
5705;DHT22;2877;48.238;11.160;2024-02-28T08:16:09;5.20;99.90
5705;DHT22;2877;48.238;11.160;2024-02-28T08:18:35;5.20;99.90
5705;DHT22;2877;48.238;11.160;2024-02-28T08:21:00;5.20;99.90
5705;DHT22;2877;48.238;11.160;2024-02-28T08:23:28;5.30;99.90
5705;DHT22;2877;48.238;11.160;2024-02-28T08:25:54;5.40;99.90
5705;DHT22;2877;48.238;11.160;2024-02-28T08:28:20;5.30;99.90
5705;DHT22;2877;48.238;11.160;2024-02-28T08:30:45;5.40;99.90
5705;DHT22;2877;48.238;11.160;2024-02-28T08:33:11;5.40;99.90
5705;DHT22;2877;48.238;11.160;2024-02-28T08:35:36;5.40;99.90
5705;DHT22;2877;48.238;11.160;2024-02-28T08:38:02;5.40;99.90
5705;DHT22;2877;48.238;11.160;2024-02-28T08:40:31;5.40;99.90
5705;DHT22;2877;48.238;11.160;2024-02-28T08:42:57;5.50;99.90
5705;DHT22;2877;48.238;11.160;2024-02-28T08:45:23;5.60;99.90
5705;DHT22;2877;48.238;11.160;2024-02-28T08:47:48;5.60;99.90
5705;DHT22;2877;48.238;11.160;2024-02-28T08:50:14;5.70;99.90
5705;DHT22;2877;48.238;11.160;2024-02-28T08:52:39;5.70;99.90
5705;DHT22;2877;48.238;11.160;2024-02-28T08:55:05;5.70;99.90
5705;DHT22;2877;48.238;11.160;2024-02-28T08:57:31;5.70;99.90
5705;DHT22;2877;48.238;11.160;2024-02-28T08:59:57;5.80;99.90
5705;DHT22;2877;48.238;11.160;2024-02-28T09:02:22;5.80;99.90
5705;DHT22;2877;48.238;11.160;2024-02-28T09:04:48;5.90;99.90
5705;DHT22;2877;48.238;11.160;2024-02-28T09:07:18;5.90;99.90
5705;DHT22;2877;48.238;11.160;2024-02-28T09:09:46;5.80;99.90
5705;DHT22;2877;48.238;11.160;2024-02-28T09:12:12;5.80;99.90
5705;DHT22;2877;48.238;11.160;2024-02-28T09:14:38;5.90;99.90
5705;DHT22;2877;48.238;11.160;2024-02-28T09:17:04;5.90;99.90
5705;DHT22;2877;48.238;11.160;2024-02-28T09:19:30;5.90;99.90
5705;DHT22;2877;48.238;11.160;2024-02-28T09:21:56;5.90;99.90
5705;DHT22;2877;48.238;11.160;2024-02-28T09:24:23;5.90;99.90
5705;DHT22;2877;48.238;11.160;2024-02-28T09:26:48;5.90;99.90
5705;DHT22;2877;48.238;11.160;2024-02-28T09:29:14;5.80;99.90
5705;DHT22;2877;48.238;11.160;2024-02-28T09:31:39;5.80;99.90
5705;DHT22;2877;48.238;11.160;2024-02-28T09:34:05;5.70;99.90
5705;DHT22;2877;48.238;11.160;2024-02-28T09:36:39;5.70;99.90
5705;DHT22;2877;48.238;11.160;2024-02-28T09:39:05;5.60;99.90
5705;DHT22;2877;48.238;11.160;2024-02-28T09:41:31;5.60;99.90
5705;DHT22;2877;48.238;11.160;2024-02-28T09:43:57;5.50;99.90
5705;DHT22;2877;48.238;11.160;2024-02-28T09:46:22;5.50;99.90
5705;DHT22;2877;48.238;11.160;2024-02-28T09:48:49;5.40;99.90
5705;DHT22;2877;48.238;11.160;2024-02-28T09:51:18;5.30;99.90
5705;DHT22;2877;48.238;11.160;2024-02-28T09:53:45;5.30;99.90
5705;DHT22;2877;48.238;11.160;2024-02-28T09:56:11;5.40;99.90
5705;DHT22;2877;48.238;11.160;2024-02-28T09:58:38;5.50;99.90
5705;DHT22;2877;48.238;11.160;2024-02-28T10:01:04;5.60;99.90
5705;DHT22;2877;48.238;11.160;2024-02-28T10:03:32;5.70;99.90
5705;DHT22;2877;48.238;11.160;2024-02-28T10:05:57;5.70;99.90
5705;DHT22;2877;48.238;11.160;2024-02-28T10:08:23;5.80;99.90
5705;DHT22;2877;48.238;11.160;2024-02-28T10:10:49;5.80;99.90
5705;DHT22;2877;48.238;11.160;2024-02-28T10:13:19;5.90;99.90
5705;DHT22;2877;48.238;11.160;2024-02-28T10:15:45;5.90;99.90
5705;DHT22;2877;48.238;11.160;2024-02-28T10:18:11;5.90;99.90
5705;DHT22;2877;48.238;11.160;2024-02-28T10:20:36;5.80;99.90
5705;DHT22;2877;48.238;11.160;2024-02-28T10:23:05;5.80;99.90
5705;DHT22;2877;48.238;11.160;2024-02-28T10:25:32;5.90;99.90
5705;DHT22;2877;48.238;11.160;2024-02-28T10:28:01;5.90;99.90
5705;DHT22;2877;48.238;11.160;2024-02-28T10:30:27;5.90;99.90
5705;DHT22;2877;48.238;11.160;2024-02-28T10:32:52;5.90;99.90
5705;DHT22;2877;48.238;11.160;2024-02-28T10:35:18;6.00;99.90
5705;DHT22;2877;48.238;11.160;2024-02-28T10:37:51;6.10;99.90
5705;DHT22;2877;48.238;11.160;2024-02-28T10:40:20;6.10;99.90
5705;DHT22;2877;48.238;11.160;2024-02-28T10:42:48;6.10;99.90
5705;DHT22;2877;48.238;11.160;2024-02-28T10:45:14;5.90;99.90
5705;DHT22;2877;48.238;11.160;2024-02-28T10:47:43;5.80;99.90
5705;DHT22;2877;48.238;11.160;2024-02-28T10:50:08;5.80;99.90
5705;DHT22;2877;48.238;11.160;2024-02-28T10:52:34;5.80;99.90
5705;DHT22;2877;48.238;11.160;2024-02-28T10:55:05;5.80;99.90
5705;DHT22;2877;48.238;11.160;2024-02-28T10:57:34;5.80;99.90
5705;DHT22;2877;48.238;11.160;2024-02-28T11:00:01;5.90;99.90
5705;DHT22;2877;48.238;11.160;2024-02-28T11:02:31;5.80;99.90
5705;DHT22;2877;48.238;11.160;2024-02-28T11:04:57;5.80;99.90
5705;DHT22;2877;48.238;11.160;2024-02-28T11:07:24;5.80;99.90
5705;DHT22;2877;48.238;11.160;2024-02-28T11:09:54;6.00;99.90
5705;DHT22;2877;48.238;11.160;2024-02-28T11:12:29;6.20;99.90
5705;DHT22;2877;48.238;11.160;2024-02-28T11:14:59;6.40;99.90
5705;DHT22;2877;48.238;11.160;2024-02-28T11:17:26;6.70;99.90
5705;DHT22;2877;48.238;11.160;2024-02-28T11:19:53;6.70;99.90
5705;DHT22;2877;48.238;11.160;2024-02-28T11:22:18;6.60;99.90
5705;DHT22;2877;48.238;11.160;2024-02-28T11:24:46;6.90;99.90
5705;DHT22;2877;48.238;11.160;2024-02-28T11:27:12;7.10;99.90
5705;DHT22;2877;48.238;11.160;2024-02-28T11:29:42;7.10;99.90
5705;DHT22;2877;48.238;11.160;2024-02-28T11:32:07;7.00;99.90
5705;DHT22;2877;48.238;11.160;2024-02-28T11:34:36;7.10;99.90
5705;DHT22;2877;48.238;11.160;2024-02-28T11:37:02;7.20;99.90
5705;DHT22;2877;48.238;11.160;2024-02-28T11:39:29;7.30;99.90
5705;DHT22;2877;48.238;11.160;2024-02-28T11:42:14;7.40;99.90
5705;DHT22;2877;48.238;11.160;2024-02-28T11:44:40;7.50;99.90
5705;DHT22;2877;48.238;11.160;2024-02-28T11:47:09;7.50;99.90
5705;DHT22;2877;48.238;11.160;2024-02-28T11:49:36;7.50;99.90
5705;DHT22;2877;48.238;11.160;2024-02-28T11:52:03;7.30;99.90
5705;DHT22;2877;48.238;11.160;2024-02-28T11:54:29;7.00;99.90
5705;DHT22;2877;48.238;11.160;2024-02-28T11:56:55;7.00;99.90
5705;DHT22;2877;48.238;11.160;2024-02-28T11:59:20;7.10;99.90
5705;DHT22;2877;48.238;11.160;2024-02-28T12:01:46;7.20;99.90
5705;DHT22;2877;48.238;11.160;2024-02-28T12:04:12;7.40;99.90
5705;DHT22;2877;48.238;11.160;2024-02-28T12:06:39;7.40;99.90
5705;DHT22;2877;48.238;11.160;2024-02-28T12:09:06;7.30;99.90
5705;DHT22;2877;48.238;11.160;2024-02-28T12:11:35;7.30;99.90
5705;DHT22;2877;48.238;11.160;2024-02-28T12:14:03;7.30;99.90
5705;DHT22;2877;48.238;11.160;2024-02-28T12:16:30;7.30;99.90
5705;DHT22;2877;48.238;11.160;2024-02-28T12:18:55;7.20;99.90
5705;DHT22;2877;48.238;11.160;2024-02-28T12:21:21;7.10;99.90
5705;DHT22;2877;48.238;11.160;2024-02-28T12:23:47;7.20;99.90
5705;DHT22;2877;48.238;11.160;2024-02-28T12:26:14;7.20;99.90
5705;DHT22;2877;48.238;11.160;2024-02-28T12:28:40;7.30;99.90
5705;DHT22;2877;48.238;11.160;2024-02-28T12:31:06;7.20;99.90
5705;DHT22;2877;48.238;11.160;2024-02-28T12:33:35;7.10;99.90
5705;DHT22;2877;48.238;11.160;2024-02-28T12:36:00;7.20;99.90
5705;DHT22;2877;48.238;11.160;2024-02-28T12:38:28;7.20;99.90
5705;DHT22;2877;48.238;11.160;2024-02-28T12:40:54;7.20;99.90
5705;DHT22;2877;48.238;11.160;2024-02-28T12:43:20;7.20;99.90
5705;DHT22;2877;48.238;11.160;2024-02-28T12:45:45;7.20;99.90
5705;DHT22;2877;48.238;11.160;2024-02-28T12:48:11;7.20;99.90
5705;DHT22;2877;48.238;11.160;2024-02-28T12:50:36;7.20;99.90
5705;DHT22;2877;48.238;11.160;2024-02-28T12:53:03;7.00;99.90
5705;DHT22;2877;48.238;11.160;2024-02-28T12:55:28;6.90;99.90
5705;DHT22;2877;48.238;11.160;2024-02-28T12:57:54;6.80;99.90
5705;DHT22;2877;48.238;11.160;2024-02-28T13:00:20;6.80;99.90
5705;DHT22;2877;48.238;11.160;2024-02-28T13:02:46;6.70;99.90
5705;DHT22;2877;48.238;11.160;2024-02-28T13:05:12;6.80;99.90
5705;DHT22;2877;48.238;11.160;2024-02-28T13:07:41;6.70;99.90
5705;DHT22;2877;48.238;11.160;2024-02-28T13:10:07;6.70;99.90
5705;DHT22;2877;48.238;11.160;2024-02-28T13:12:34;6.80;99.90
5705;DHT22;2877;48.238;11.160;2024-02-28T13:14:59;6.90;99.90
5705;DHT22;2877;48.238;11.160;2024-02-28T13:17:25;7.00;99.90
5705;DHT22;2877;48.238;11.160;2024-02-28T13:19:51;7.20;99.90
5705;DHT22;2877;48.238;11.160;2024-02-28T13:22:17;7.20;99.90
5705;DHT22;2877;48.238;11.160;2024-02-28T13:24:42;7.40;99.90
5705;DHT22;2877;48.238;11.160;2024-02-28T13:27:08;7.20;99.90
5705;DHT22;2877;48.238;11.160;2024-02-28T13:29:34;7.30;99.90
5705;DHT22;2877;48.238;11.160;2024-02-28T13:32:00;7.30;99.90
5705;DHT22;2877;48.238;11.160;2024-02-28T13:34:27;7.20;99.90
5705;DHT22;2877;48.238;11.160;2024-02-28T13:36:52;7.50;99.90
5705;DHT22;2877;48.238;11.160;2024-02-28T13:39:18;7.50;99.90
5705;DHT22;2877;48.238;11.160;2024-02-28T13:41:43;7.50;99.90
5705;DHT22;2877;48.238;11.160;2024-02-28T13:44:09;7.60;99.90
5705;DHT22;2877;48.238;11.160;2024-02-28T13:46:35;7.60;99.90
5705;DHT22;2877;48.238;11.160;2024-02-28T13:49:01;7.70;99.90
5705;DHT22;2877;48.238;11.160;2024-02-28T13:51:27;7.60;99.90
5705;DHT22;2877;48.238;11.160;2024-02-28T13:53:52;7.60;99.90
5705;DHT22;2877;48.238;11.160;2024-02-28T13:56:19;7.60;99.90
5705;DHT22;2877;48.238;11.160;2024-02-28T13:58:45;7.50;99.90
5705;DHT22;2877;48.238;11.160;2024-02-28T14:01:12;7.50;99.90
5705;DHT22;2877;48.238;11.160;2024-02-28T14:03:37;7.50;99.90
5705;DHT22;2877;48.238;11.160;2024-02-28T14:06:04;7.50;99.90
5705;DHT22;2877;48.238;11.160;2024-02-28T14:08:29;7.60;99.90
5705;DHT22;2877;48.238;11.160;2024-02-28T14:10:55;7.50;99.90
5705;DHT22;2877;48.238;11.160;2024-02-28T14:13:20;7.50;99.90
5705;DHT22;2877;48.238;11.160;2024-02-28T14:15:46;7.50;99.90
5705;DHT22;2877;48.238;11.160;2024-02-28T14:18:12;7.60;99.90
5705;DHT22;2877;48.238;11.160;2024-02-28T14:20:38;7.40;99.90
5705;DHT22;2877;48.238;11.160;2024-02-28T14:23:04;7.50;99.90
5705;DHT22;2877;48.238;11.160;2024-02-28T14:25:30;7.50;99.90
5705;DHT22;2877;48.238;11.160;2024-02-28T14:27:56;7.60;99.90
5705;DHT22;2877;48.238;11.160;2024-02-28T14:30:22;7.70;99.90
5705;DHT22;2877;48.238;11.160;2024-02-28T14:32:47;7.80;99.90
5705;DHT22;2877;48.238;11.160;2024-02-28T14:35:14;7.80;99.90
5705;DHT22;2877;48.238;11.160;2024-02-28T14:37:40;7.70;99.90
5705;DHT22;2877;48.238;11.160;2024-02-28T14:40:07;7.70;99.90
5705;DHT22;2877;48.238;11.160;2024-02-28T14:42:37;7.80;99.90
5705;DHT22;2877;48.238;11.160;2024-02-28T14:45:05;7.80;99.90
5705;DHT22;2877;48.238;11.160;2024-02-28T14:47:31;7.70;99.90
5705;DHT22;2877;48.238;11.160;2024-02-28T14:49:57;7.70;99.90
5705;DHT22;2877;48.238;11.160;2024-02-28T14:52:23;7.60;99.90
5705;DHT22;2877;48.238;11.160;2024-02-28T14:54:48;7.50;99.90
5705;DHT22;2877;48.238;11.160;2024-02-28T14:57:14;7.50;99.90
5705;DHT22;2877;48.238;11.160;2024-02-28T14:59:41;7.30;99.90
5705;DHT22;2877;48.238;11.160;2024-02-28T15:02:08;7.30;99.90
5705;DHT22;2877;48.238;11.160;2024-02-28T15:04:36;7.30;99.90
5705;DHT22;2877;48.238;11.160;2024-02-28T15:07:02;7.30;99.90
5705;DHT22;2877;48.238;11.160;2024-02-28T15:09:28;7.30;99.90
5705;DHT22;2877;48.238;11.160;2024-02-28T15:11:53;7.30;99.90
5705;DHT22;2877;48.238;11.160;2024-02-28T15:14:20;7.20;99.90
5705;DHT22;2877;48.238;11.160;2024-02-28T15:16:46;7.10;99.90
5705;DHT22;2877;48.238;11.160;2024-02-28T15:19:12;7.10;99.90
5705;DHT22;2877;48.238;11.160;2024-02-28T15:21:38;7.00;99.90
5705;DHT22;2877;48.238;11.160;2024-02-28T15:24:03;7.10;99.90
5705;DHT22;2877;48.238;11.160;2024-02-28T15:26:30;7.00;99.90
5705;DHT22;2877;48.238;11.160;2024-02-28T15:28:56;7.00;99.90
5705;DHT22;2877;48.238;11.160;2024-02-28T15:31:21;7.00;99.90
5705;DHT22;2877;48.238;11.160;2024-02-28T15:33:48;7.10;99.90
5705;DHT22;2877;48.238;11.160;2024-02-28T15:36:14;7.00;99.90
5705;DHT22;2877;48.238;11.160;2024-02-28T15:38:40;7.00;99.90
5705;DHT22;2877;48.238;11.160;2024-02-28T15:41:05;7.00;99.90
5705;DHT22;2877;48.238;11.160;2024-02-28T15:43:31;6.90;99.90
5705;DHT22;2877;48.238;11.160;2024-02-28T15:45:56;6.90;99.90
5705;DHT22;2877;48.238;11.160;2024-02-28T15:48:22;6.90;99.90
5705;DHT22;2877;48.238;11.160;2024-02-28T15:50:48;6.90;99.90
5705;DHT22;2877;48.238;11.160;2024-02-28T15:53:14;6.90;99.90
5705;DHT22;2877;48.238;11.160;2024-02-28T15:55:39;6.90;99.90